Sfl Sara — VRHZ6 — position and weather

sailwx.info

Track history (hours):
 
Tides and Currents Weather Stations Pressure Air Temp Water Temp Dewpoint Dewpoint Depression Visibility Wind Speed Wind Dir Waves Ship Positions

Sfl Sara

Last reported at 2017-Nov-04 08:14 UTC. Time now 2017-Dec-17 15:47 UTC.
Position N 36°12' E 014°52'.
Warning: this ship's position is 43 days out of date.

Length 190 m; draft 12.3 m.

Type: Cargo ship. MMSI: 477866600.

Date/timePositionNaut miles runAvg speedWind from/ knotsBaromVisibWave heightAir tempDewpointWater temp
2017-Nov-04 08:14N 36°12' E 014°52'312.0
2017-Nov-04 07:59N 36°12' E 014°48'612.1
2017-Nov-04 07:30N 36°14' E 014°41'612.2
2017-Nov-04 07:00N 36°15' E 014°34'612.4
2017-Nov-04 06:30N 36°17' E 014°26'612.2
2017-Nov-04 06:00N 36°18' E 014°19'612.3
2017-Nov-04 05:30N 36°20' E 014°12'612.4
2017-Nov-04 05:00N 36°22' E 014°04'612.5
2017-Nov-04 04:30N 36°23' E 013°57'612.5
2017-Nov-04 04:00N 36°25' E 013°49'612.5
2017-Nov-04 03:30N 36°27' E 013°42'712.5
2017-Nov-04 02:56N 36°28' E 013°33'  
2017-Oct-31 20:18N 36°03' W 005°16'5 0.4
2017-Oct-31 08:10N 36°03' W 005°23'1 6.6
2017-Oct-31 07:59N 36°02' W 005°23'10811.4
2017-Oct-30 22:33N 35°52' W 007°36'3513.1
2017-Oct-30 19:51N 35°51' W 008°19'1713.4
2017-Oct-30 18:36N 35°50' W 008°40'113.4
2017-Oct-30 18:30N 35°50' W 008°41'713.2
2017-Oct-30 18:00N 35°50' W 008°49'713.1
2017-Oct-30 17:30N 35°49' W 008°58'2513.2
2017-Oct-30 15:36N 35°48' W 009°28'112.9
2017-Oct-30 15:30N 35°48' W 009°30'612.9
2017-Oct-30 15:00N 35°48' W 009°38'6713.0
2017-Oct-30 09:51N 35°46' W 011°01'512.9
2017-Oct-30 09:30N 35°46' W 011°06'612.9
2017-Oct-30 09:00N 35°46' W 011°14'1112.9
2017-Oct-30 08:10N 35°45' W 011°27'212.7
2017-Oct-30 08:00N 35°45' W 011°30'612.8
2017-Oct-30 07:30N 35°45' W 011°38'712.8
2017-Oct-30 06:57N 35°45' W 011°47'612.8
2017-Oct-30 06:29N 35°45' W 011°54'612.7
2017-Oct-30 05:59N 35°45' W 012°02'612.6
2017-Oct-30 05:30N 35°44' W 012°09'612.6
2017-Oct-30 05:00N 35°44' W 012°17'612.6
2017-Oct-30 04:30N 35°44' W 012°25'712.6
2017-Oct-30 03:58N 35°44' W 012°33'612.4
2017-Oct-30 03:31N 35°44' W 012°40'612.6
2017-Oct-30 03:00N 35°43' W 012°48'612.3
2017-Oct-30 02:30N 35°43' W 012°55'612.3
2017-Oct-30 02:00N 35°43' W 013°03'612.4
2017-Oct-30 01:30N 35°43' W 013°10'612.6
2017-Oct-30 01:00N 35°43' W 013°18'612.7
2017-Oct-30 00:30N 35°43' W 013°26'612.7
2017-Oct-30 00:00N 35°42' W 013°34'612.9
2017-Oct-29 23:30N 35°42' W 013°42'613.0
2017-Oct-29 23:00N 35°42' W 013°50'613.0
2017-Oct-29 22:30N 35°42' W 013°58'612.9
2017-Oct-29 22:00N 35°41' W 014°06'612.8
2017-Oct-29 21:30N 35°41' W 014°13'612.7
2017-Oct-29 21:00N 35°41' W 014°21'612.8
2017-Oct-29 20:30N 35°41' W 014°29'713.0
2017-Oct-29 20:00N 35°41' W 014°37'713.0
2017-Oct-29 19:30N 35°40' W 014°45'612.8
2017-Oct-29 19:00N 35°40' W 014°53'612.7
2017-Oct-29 18:30N 35°40' W 015°01'612.6
2017-Oct-29 18:00N 35°40' W 015°09'712.8
2017-Oct-29 17:30N 35°40' W 015°17'612.4
2017-Oct-29 16:59N 35°40' W 015°25'612.6
2017-Oct-29 16:30N 35°39' W 015°32'712.6
2017-Oct-29 15:59N 35°39' W 015°40'612.7
2017-Oct-29 15:30N 35°39' W 015°48'612.6
2017-Oct-29 15:00N 35°38' W 015°55'612.6
2017-Oct-29 14:30N 35°38' W 016°03'712.6
2017-Oct-29 13:55N 35°38' W 016°12'512.6
2017-Oct-29 13:29N 35°38' W 016°19'1012.5
2017-Oct-29 12:40N 35°38' W 016°31'312.4
2017-Oct-29 12:24N 35°38' W 016°35'612.3
2017-Oct-29 11:54N 35°37' W 016°43'612.3
2017-Oct-29 11:23N 35°37' W 016°51'512.5
2017-Oct-29 11:00N 35°37' W 016°57'712.6
2017-Oct-29 10:29N 35°37' W 017°05'612.7
2017-Oct-29 09:58N 35°37' W 017°13'712.7
2017-Oct-29 09:27N 35°36' W 017°21'612.8
2017-Oct-29 09:00N 35°36' W 017°28'712.6
2017-Oct-29 08:29N 35°36' W 017°36'812.7
2017-Oct-29 07:53N 35°36' W 017°45'512.9
2017-Oct-29 07:29N 35°36' W 017°51'2712.8
2017-Oct-29 05:21N 35°35' W 018°25'412.9
2017-Oct-29 05:00N 35°34' W 018°30'1013.0
2017-Oct-29 04:12N 35°34' W 018°43'313.1
2017-Oct-29 04:00N 35°34' W 018°47'26113.2
2017-Oct-28 08:13N 35°26' W 024°07'313.0
2017-Oct-28 07:58N 35°26' W 024°11'713.2
2017-Oct-28 07:28N 35°26' W 024°19'613.3
2017-Oct-28 07:00N 35°26' W 024°27'713.1
2017-Oct-28 06:26N 35°25' W 024°36'613.0
2017-Oct-28 05:58N 35°25' W 024°43'5912.8
2017-Oct-28 01:24N 35°22' W 025°55'713.3
2017-Oct-28 00:53N 35°22' W 026°04'  
Track history (hours):
 
Tides and Currents Weather Stations Pressure Air Temp Water Temp Dewpoint Dewpoint Depression Visibility Wind Speed Wind Dir Waves Ship Positions

Sfl Sara

Last reported at 2017-Nov-04 08:14 UTC. Time now 2017-Dec-17 15:47 UTC.
Position N 36°12' E 014°52'.
Warning: this ship's position is 43 days out of date.

Length 190 m; draft 12.3 m.

Type: Cargo ship. MMSI: 477866600.

Date/timePositionNaut miles runAvg speedWind from/ knotsBaromVisibWave heightAir tempDewpointWater temp
2017-Nov-04 08:14N 36°12' E 014°52'312.0
2017-Nov-04 07:59N 36°12' E 014°48'612.1
2017-Nov-04 07:30N 36°14' E 014°41'612.2
2017-Nov-04 07:00N 36°15' E 014°34'612.4
2017-Nov-04 06:30N 36°17' E 014°26'612.2
2017-Nov-04 06:00N 36°18' E 014°19'612.3
2017-Nov-04 05:30N 36°20' E 014°12'612.4
2017-Nov-04 05:00N 36°22' E 014°04'612.5
2017-Nov-04 04:30N 36°23' E 013°57'612.5
2017-Nov-04 04:00N 36°25' E 013°49'612.5
2017-Nov-04 03:30N 36°27' E 013°42'712.5
2017-Nov-04 02:56N 36°28' E 013°33'  
2017-Oct-31 20:18N 36°03' W 005°16'5 0.4
2017-Oct-31 08:10N 36°03' W 005°23'1 6.6
2017-Oct-31 07:59N 36°02' W 005°23'10811.4
2017-Oct-30 22:33N 35°52' W 007°36'3513.1
2017-Oct-30 19:51N 35°51' W 008°19'1713.4
2017-Oct-30 18:36N 35°50' W 008°40'113.4
2017-Oct-30 18:30N 35°50' W 008°41'713.2
2017-Oct-30 18:00N 35°50' W 008°49'713.1
2017-Oct-30 17:30N 35°49' W 008°58'2513.2
2017-Oct-30 15:36N 35°48' W 009°28'112.9
2017-Oct-30 15:30N 35°48' W 009°30'612.9
2017-Oct-30 15:00N 35°48' W 009°38'6713.0
2017-Oct-30 09:51N 35°46' W 011°01'512.9
2017-Oct-30 09:30N 35°46' W 011°06'612.9
2017-Oct-30 09:00N 35°46' W 011°14'1112.9
2017-Oct-30 08:10N 35°45' W 011°27'212.7
2017-Oct-30 08:00N 35°45' W 011°30'612.8
2017-Oct-30 07:30N 35°45' W 011°38'712.8
2017-Oct-30 06:57N 35°45' W 011°47'612.8
2017-Oct-30 06:29N 35°45' W 011°54'612.7
2017-Oct-30 05:59N 35°45' W 012°02'612.6
2017-Oct-30 05:30N 35°44' W 012°09'612.6
2017-Oct-30 05:00N 35°44' W 012°17'612.6
2017-Oct-30 04:30N 35°44' W 012°25'712.6
2017-Oct-30 03:58N 35°44' W 012°33'612.4
2017-Oct-30 03:31N 35°44' W 012°40'612.6
2017-Oct-30 03:00N 35°43' W 012°48'612.3
2017-Oct-30 02:30N 35°43' W 012°55'612.3
2017-Oct-30 02:00N 35°43' W 013°03'612.4
2017-Oct-30 01:30N 35°43' W 013°10'612.6
2017-Oct-30 01:00N 35°43' W 013°18'612.7
2017-Oct-30 00:30N 35°43' W 013°26'612.7
2017-Oct-30 00:00N 35°42' W 013°34'612.9
2017-Oct-29 23:30N 35°42' W 013°42'613.0
2017-Oct-29 23:00N 35°42' W 013°50'613.0
2017-Oct-29 22:30N 35°42' W 013°58'612.9
2017-Oct-29 22:00N 35°41' W 014°06'612.8
2017-Oct-29 21:30N 35°41' W 014°13'612.7
2017-Oct-29 21:00N 35°41' W 014°21'612.8
2017-Oct-29 20:30N 35°41' W 014°29'713.0
2017-Oct-29 20:00N 35°41' W 014°37'713.0
2017-Oct-29 19:30N 35°40' W 014°45'612.8
2017-Oct-29 19:00N 35°40' W 014°53'612.7
2017-Oct-29 18:30N 35°40' W 015°01'612.6
2017-Oct-29 18:00N 35°40' W 015°09'712.8
2017-Oct-29 17:30N 35°40' W 015°17'612.4
2017-Oct-29 16:59N 35°40' W 015°25'612.6
2017-Oct-29 16:30N 35°39' W 015°32'712.6
2017-Oct-29 15:59N 35°39' W 015°40'612.7
2017-Oct-29 15:30N 35°39' W 015°48'612.6
2017-Oct-29 15:00N 35°38' W 015°55'612.6
2017-Oct-29 14:30N 35°38' W 016°03'712.6
2017-Oct-29 13:55N 35°38' W 016°12'512.6
2017-Oct-29 13:29N 35°38' W 016°19'1012.5
2017-Oct-29 12:40N 35°38' W 016°31'312.4
2017-Oct-29 12:24N 35°38' W 016°35'612.3
2017-Oct-29 11:54N 35°37' W 016°43'612.3
2017-Oct-29 11:23N 35°37' W 016°51'512.5
2017-Oct-29 11:00N 35°37' W 016°57'712.6
2017-Oct-29 10:29N 35°37' W 017°05'612.7
2017-Oct-29 09:58N 35°37' W 017°13'712.7
2017-Oct-29 09:27N 35°36' W 017°21'612.8
2017-Oct-29 09:00N 35°36' W 017°28'712.6
2017-Oct-29 08:29N 35°36' W 017°36'812.7
2017-Oct-29 07:53N 35°36' W 017°45'512.9
2017-Oct-29 07:29N 35°36' W 017°51'2712.8
2017-Oct-29 05:21N 35°35' W 018°25'412.9
2017-Oct-29 05:00N 35°34' W 018°30'1013.0
2017-Oct-29 04:12N 35°34' W 018°43'313.1
2017-Oct-29 04:00N 35°34' W 018°47'26113.2
2017-Oct-28 08:13N 35°26' W 024°07'313.0
2017-Oct-28 07:58N 35°26' W 024°11'713.2
2017-Oct-28 07:28N 35°26' W 024°19'613.3
2017-Oct-28 07:00N 35°26' W 024°27'713.1
2017-Oct-28 06:26N 35°25' W 024°36'613.0
2017-Oct-28 05:58N 35°25' W 024°43'5912.8
2017-Oct-28 01:24N 35°22' W 025°55'713.3
2017-Oct-28 00:53N 35°22' W 026°04'  

Dump ship's entire track history